createdAt,value
2023-03-16T00:01:21.059Z,0.80
2023-03-16T00:03:55.197Z,0.93
2023-03-16T00:09:30.173Z,0.60
2023-03-16T00:12:22.805Z,0.70
2023-03-16T00:14:56.068Z,1.00
2023-03-16T00:17:26.013Z,0.68
2023-03-16T00:19:58.356Z,0.50
2023-03-16T00:22:43.961Z,0.90
2023-03-16T00:25:23.737Z,0.60
2023-03-16T00:28:15.097Z,0.60
2023-03-16T00:31:12.315Z,0.60
2023-03-16T00:33:47.243Z,0.80
2023-03-16T00:36:38.617Z,0.77
2023-03-16T00:39:18.249Z,0.68
2023-03-16T00:42:35.271Z,0.70
2023-03-16T00:45:43.491Z,0.70
2023-03-16T00:48:37.631Z,0.63
2023-03-16T00:51:16.475Z,0.70
2023-03-16T00:53:57.543Z,0.43
2023-03-16T00:56:50.905Z,0.50
2023-03-16T00:59:24.608Z,0.75
2023-03-16T01:02:09.167Z,0.60
2023-03-16T01:05:00.413Z,0.60
2023-03-16T01:07:49.922Z,0.60
2023-03-16T01:10:20.815Z,0.38
2023-03-16T01:13:15.708Z,0.80
2023-03-16T01:15:45.413Z,0.60
2023-03-16T01:18:18.490Z,0.60
2023-03-16T01:21:42.842Z,0.70
2023-03-16T01:24:22.017Z,0.60
2023-03-16T01:26:53.829Z,0.50
2023-03-16T01:29:48.139Z,0.63
2023-03-16T01:32:27.887Z,0.60
2023-03-16T01:34:59.169Z,0.60
2023-03-16T01:37:37.537Z,0.70
2023-03-16T01:40:10.143Z,0.40
2023-03-16T01:43:12.277Z,0.52
2023-03-16T01:46:05.728Z,0.63
2023-03-16T01:49:00.388Z,0.73
2023-03-16T01:51:54.307Z,0.50
2023-03-16T01:54:48.466Z,0.70
2023-03-16T01:57:35.207Z,0.60
2023-03-16T02:00:10.201Z,0.70
2023-03-16T02:03:06.553Z,0.60
2023-03-16T02:06:03.723Z,0.43
2023-03-16T02:08:57.074Z,0.50
2023-03-16T02:11:38.494Z,0.60
2023-03-16T02:14:30.589Z,0.65
2023-03-16T02:17:19.123Z,0.50
2023-03-16T02:20:25.363Z,0.60
2023-03-16T02:22:59.195Z,0.50
2023-03-16T02:25:50.079Z,0.40
2023-03-16T02:29:09.911Z,0.57
2023-03-16T02:31:37.253Z,0.60
2023-03-16T02:34:09.893Z,0.50
2023-03-16T02:36:44.840Z,0.40
2023-03-16T02:42:01.188Z,0.50
2023-03-16T02:44:36.011Z,0.40
2023-03-16T02:47:13.059Z,0.50
2023-03-16T02:49:49.204Z,0.68
2023-03-16T02:52:25.846Z,0.60
2023-03-16T02:55:01.576Z,0.60
2023-03-16T02:57:41.986Z,0.50
2023-03-16T03:00:23.631Z,0.30
2023-03-16T03:02:59.525Z,0.40
2023-03-16T03:05:35.354Z,0.50
2023-03-16T03:08:05.989Z,0.50
2023-03-16T03:10:35.731Z,0.50
2023-03-16T03:13:09.016Z,0.40
2023-03-16T03:15:40.452Z,0.65
2023-03-16T03:18:13.075Z,0.50
2023-03-16T03:20:41.647Z,0.38
2023-03-16T03:23:26.301Z,0.52
2023-03-16T03:25:59.936Z,0.47
2023-03-16T03:28:31.328Z,0.40
2023-03-16T03:31:01.530Z,0.45
2023-03-16T03:33:31.961Z,0.38
2023-03-16T03:36:05.854Z,0.52
2023-03-16T03:38:38.590Z,0.40
2023-03-16T03:41:14.040Z,0.40
2023-03-16T03:43:48.056Z,0.68
2023-03-16T03:46:33.373Z,0.50
2023-03-16T03:49:06.365Z,0.40
2023-03-16T03:51:42.241Z,0.60
2023-03-16T03:54:12.053Z,0.50
2023-03-16T03:56:44.048Z,0.30
2023-03-16T03:59:12.976Z,0.40
2023-03-16T04:01:44.038Z,0.40
2023-03-16T04:04:29.126Z,0.50
2023-03-16T04:07:01.961Z,0.38
2023-03-16T04:09:28.218Z,0.60
2023-03-16T04:12:06.527Z,0.40
2023-03-16T04:14:37.433Z,0.40
2023-03-16T04:17:08.538Z,0.40
2023-03-16T04:19:40.032Z,0.40
2023-03-16T04:22:07.230Z,0.40
2023-03-16T04:24:33.856Z,0.55
2023-03-16T04:27:02.095Z,0.40
2023-03-16T04:29:28.598Z,0.40
2023-03-16T04:31:54.678Z,0.30
2023-03-16T04:34:24.443Z,0.50
2023-03-16T04:36:52.197Z,0.28
2023-03-16T04:39:21.731Z,0.32
2023-03-16T04:41:47.952Z,0.40
2023-03-16T04:44:14.213Z,0.47
2023-03-16T04:46:40.384Z,0.30
2023-03-16T04:49:09.292Z,0.35
2023-03-16T04:51:40.025Z,0.30
2023-03-16T04:54:07.909Z,0.30
2023-03-16T04:56:36.435Z,0.38
2023-03-16T04:59:02.660Z,0.40
2023-03-16T05:01:33.165Z,0.20
2023-03-16T05:03:59.793Z,0.30
2023-03-16T05:06:26.270Z,0.20
2023-03-16T05:08:52.397Z,0.20
2023-03-16T05:11:18.489Z,0.40
2023-03-16T05:13:44.915Z,0.40
2023-03-16T05:16:11.232Z,0.50
2023-03-16T05:18:37.676Z,0.50
2023-03-16T05:21:04.501Z,0.43
2023-03-16T05:23:30.929Z,0.38
2023-03-16T05:26:00.734Z,0.30
2023-03-16T05:28:28.213Z,0.40
2023-03-16T05:30:55.623Z,0.30
2023-03-16T05:33:21.727Z,0.40
2023-03-16T05:35:47.960Z,0.30
2023-03-16T05:38:15.146Z,0.50
2023-03-16T05:40:41.711Z,0.40
2023-03-16T05:43:08.001Z,0.40
2023-03-16T05:45:34.174Z,0.40
2023-03-16T05:48:00.298Z,0.40
2023-03-16T05:50:26.794Z,0.35
2023-03-16T05:52:53.570Z,0.30
2023-03-16T05:55:19.773Z,0.38
2023-03-16T05:57:45.837Z,0.43
2023-03-16T06:00:14.925Z,0.40
2023-03-16T06:02:42.548Z,0.30
2023-03-16T06:05:08.961Z,0.30
2023-03-16T06:07:35.547Z,0.63
2023-03-16T06:10:02.179Z,0.70
2023-03-16T06:12:29.265Z,0.50
2023-03-16T06:14:55.420Z,1.13
2023-03-16T06:17:21.500Z,1.45
2023-03-16T06:19:47.543Z,2.38
2023-03-16T06:22:13.659Z,2.00
2023-03-16T06:24:39.811Z,1.77
2023-03-16T06:27:05.926Z,1.80
2023-03-16T06:29:32.705Z,1.52
2023-03-16T06:31:58.984Z,1.80
2023-03-16T06:34:25.272Z,1.63
2023-03-16T06:36:51.632Z,1.52
2023-03-16T06:39:17.804Z,2.20
2023-03-16T06:41:43.897Z,2.00
2023-03-16T06:44:11.028Z,2.10
2023-03-16T06:46:37.786Z,2.17
2023-03-16T06:49:04.658Z,2.95
2023-03-16T06:51:33.341Z,2.70
2023-03-16T06:54:01.110Z,3.00
2023-03-16T06:56:28.028Z,2.95
2023-03-16T06:59:09.293Z,2.65
2023-03-16T07:01:47.239Z,2.00
2023-03-16T07:04:15.866Z,2.10
2023-03-16T07:06:45.053Z,1.40
2023-03-16T07:09:11.826Z,1.30
2023-03-16T07:11:39.258Z,1.55
2023-03-16T07:14:12.867Z,1.70
2023-03-16T07:16:39.079Z,1.20
2023-03-16T07:19:05.161Z,1.20
2023-03-16T07:21:38.427Z,1.40
2023-03-16T07:24:05.420Z,1.10
2023-03-16T07:26:32.327Z,1.30
2023-03-16T07:29:01.953Z,1.35
2023-03-16T07:31:30.213Z,0.90
2023-03-16T07:33:56.811Z,1.50
2023-03-16T07:36:22.871Z,2.15
2023-03-16T07:38:49.204Z,2.17
2023-03-16T07:41:15.308Z,2.30
2023-03-16T07:43:41.361Z,2.35
2023-03-16T07:46:07.446Z,2.65
2023-03-16T07:48:33.593Z,2.28
2023-03-16T07:50:59.700Z,2.65
2023-03-16T07:53:27.419Z,2.17
2023-03-16T07:56:03.785Z,1.45
2023-03-16T07:58:31.095Z,1.30
2023-03-16T08:01:00.864Z,1.48
2023-03-16T08:03:28.413Z,1.45
2023-03-16T08:05:54.908Z,1.60
2023-03-16T08:08:21.838Z,1.50
2023-03-16T08:10:48.858Z,1.33
2023-03-16T08:13:15.341Z,1.50
2023-03-16T08:15:41.736Z,1.55
2023-03-16T08:18:07.807Z,1.48
2023-03-16T08:20:33.897Z,1.60
2023-03-16T08:22:59.996Z,1.40
2023-03-16T08:25:26.115Z,1.27
2023-03-16T08:27:52.452Z,1.40
2023-03-16T08:30:18.981Z,1.02
2023-03-16T08:32:45.154Z,1.17
2023-03-16T08:35:13.598Z,1.30
2023-03-16T08:37:40.888Z,1.08
2023-03-16T08:40:17.366Z,0.98
2023-03-16T08:42:44.468Z,1.33
2023-03-16T08:45:22.805Z,1.50
2023-03-16T08:47:53.076Z,1.30
2023-03-16T08:50:28.702Z,1.27
2023-03-16T08:53:02.959Z,1.33
2023-03-16T08:55:32.983Z,1.40
2023-03-16T08:58:18.397Z,1.23
2023-03-16T09:00:50.694Z,1.45
2023-03-16T09:03:31.814Z,1.25
2023-03-16T09:06:09.245Z,1.27
2023-03-16T09:08:40.382Z,1.23
2023-03-16T09:11:13.589Z,1.80
2023-03-16T09:13:45.323Z,1.10
2023-03-16T09:16:17.530Z,1.30
2023-03-16T09:19:14.813Z,1.33
2023-03-16T09:21:47.290Z,1.35
2023-03-16T09:24:16.902Z,1.52
2023-03-16T09:26:47.270Z,1.40
2023-03-16T09:29:18.349Z,1.15
2023-03-16T09:31:58.473Z,1.27
2023-03-16T09:36:57.196Z,1.20
2023-03-16T09:39:28.532Z,1.40
2023-03-16T09:42:22.493Z,1.33
2023-03-16T09:45:04.859Z,1.20
2023-03-16T09:47:40.371Z,1.77
2023-03-16T09:50:47.340Z,1.70
2023-03-16T09:54:07.316Z,1.30
2023-03-16T09:56:45.689Z,1.05
2023-03-16T09:59:24.306Z,1.08
2023-03-16T10:02:03.843Z,1.30
2023-03-16T10:04:52.511Z,1.50
2023-03-16T10:07:45.201Z,1.05
2023-03-16T10:10:32.210Z,1.20
2023-03-16T10:13:08.289Z,1.10
2023-03-16T10:15:42.231Z,1.02
2023-03-16T10:18:38.922Z,1.13
2023-03-16T10:21:24.257Z,1.25
2023-03-16T10:23:57.706Z,1.20
2023-03-16T10:26:53.482Z,1.20
2023-03-16T10:29:28.860Z,1.02
2023-03-16T10:32:08.522Z,1.00
2023-03-16T10:34:39.821Z,1.15
2023-03-16T10:37:19.376Z,1.00
2023-03-16T10:39:48.480Z,1.27
2023-03-16T10:42:17.971Z,1.13
2023-03-16T10:44:44.727Z,1.27
2023-03-16T10:47:37.513Z,1.17
2023-03-16T10:50:13.621Z,1.10
2023-03-16T10:52:48.978Z,1.30
2023-03-16T10:55:41.528Z,0.80
2023-03-16T10:58:22.987Z,1.00
2023-03-16T11:01:07.628Z,1.10
2023-03-16T11:03:40.961Z,1.10
2023-03-16T11:06:30.737Z,1.00
2023-03-16T11:09:47.460Z,1.20
2023-03-16T11:12:28.127Z,1.02
2023-03-16T11:15:32.692Z,0.90
2023-03-16T11:18:03.106Z,1.20
2023-03-16T11:20:46.972Z,1.10
2023-03-16T11:23:17.561Z,1.20
2023-03-16T11:25:52.757Z,1.40
2023-03-16T11:28:50.402Z,1.13
2023-03-16T11:31:44.821Z,0.80
2023-03-16T11:34:31.037Z,0.80
2023-03-16T11:37:02.682Z,1.25
2023-03-16T11:39:49.723Z,0.90
2023-03-16T11:42:43.376Z,1.15
2023-03-16T11:45:35.596Z,0.80
2023-03-16T11:48:28.917Z,1.00
2023-03-16T11:51:24.071Z,1.00
2023-03-16T11:54:10.128Z,0.85
2023-03-16T11:56:54.254Z,1.25
2023-03-16T11:59:49.023Z,0.95
2023-03-16T12:02:53.511Z,1.30
2023-03-16T12:05:28.522Z,0.80
2023-03-16T12:08:08.914Z,1.33
2023-03-16T12:11:01.648Z,1.08
2023-03-16T12:14:10.072Z,0.98
2023-03-16T12:16:57.135Z,1.00
2023-03-16T12:19:35.222Z,1.02
2023-03-16T12:22:16.356Z,1.20
2023-03-16T12:24:45.388Z,1.10
2023-03-16T12:27:37.982Z,1.00
2023-03-16T12:30:41.033Z,1.05
2023-03-16T12:33:23.021Z,1.00
2023-03-16T12:36:02.787Z,1.10
2023-03-16T12:38:48.592Z,1.17
2023-03-16T12:42:02.808Z,1.05
2023-03-16T12:44:49.827Z,1.45
2023-03-16T12:47:24.900Z,1.10
2023-03-16T12:49:52.033Z,1.15
2023-03-16T12:52:21.961Z,1.08
2023-03-16T12:55:15.302Z,1.00
2023-03-16T12:57:45.859Z,0.90
2023-03-16T13:00:17.061Z,0.98
2023-03-16T13:03:17.824Z,0.88
2023-03-16T13:05:51.400Z,0.93
2023-03-16T13:08:19.902Z,1.10
2023-03-16T13:11:16.079Z,0.85
2023-03-16T13:14:15.408Z,0.90
2023-03-16T13:16:45.594Z,1.00
2023-03-16T13:19:29.783Z,0.82
2023-03-16T13:22:31.128Z,0.80
2023-03-16T13:25:42.949Z,0.65
2023-03-16T13:28:20.342Z,0.80
2023-03-16T13:30:58.718Z,1.00
2023-03-16T13:33:36.251Z,0.77
2023-03-16T13:36:04.099Z,0.80
2023-03-16T13:38:30.710Z,1.02
2023-03-16T13:41:25.029Z,0.88
2023-03-16T13:43:58.696Z,1.10
2023-03-16T13:46:29.846Z,1.00
2023-03-16T13:49:02.349Z,1.10
2023-03-16T13:51:37.037Z,0.82
2023-03-16T13:54:35.094Z,1.00
2023-03-16T13:57:47.630Z,0.80
2023-03-16T14:00:43.230Z,0.80
2023-03-16T14:03:34.833Z,0.77
2023-03-16T14:06:02.853Z,1.15
2023-03-16T14:08:33.205Z,0.70
2023-03-16T14:11:01.500Z,1.13
2023-03-16T14:13:35.579Z,0.95
2023-03-16T14:16:12.268Z,0.70
2023-03-16T14:18:55.735Z,1.15
2023-03-16T14:21:31.325Z,0.90
2023-03-16T14:24:22.266Z,0.70
2023-03-16T14:26:53.395Z,0.70
2023-03-16T14:29:35.962Z,0.80
2023-03-16T14:32:29.680Z,0.80
2023-03-16T14:35:45.627Z,0.70
2023-03-16T14:38:38.968Z,0.70
2023-03-16T14:41:30.240Z,1.00
2023-03-16T14:44:00.410Z,0.70
2023-03-16T14:46:45.465Z,0.88
2023-03-16T14:49:31.971Z,0.60
2023-03-16T14:52:15.651Z,0.80
2023-03-16T14:54:49.397Z,0.68
2023-03-16T14:57:26.492Z,0.65
2023-03-16T14:59:56.983Z,0.63
2023-03-16T15:02:35.822Z,0.70
2023-03-16T15:05:11.509Z,0.85
2023-03-16T15:07:44.739Z,0.80
2023-03-16T15:10:21.807Z,0.82
2023-03-16T15:13:17.173Z,0.63
2023-03-16T15:15:47.923Z,0.80
2023-03-16T15:18:18.434Z,0.63
2023-03-16T15:20:44.963Z,0.70
2023-03-16T15:23:19.617Z,1.05
2023-03-16T15:26:01.404Z,1.02
2023-03-16T15:28:29.633Z,0.70
2023-03-16T15:30:57.737Z,0.60
2023-03-16T15:36:23.527Z,0.70
2023-03-16T15:39:14.952Z,0.80
2023-03-16T15:41:49.449Z,0.90
2023-03-16T15:44:16.859Z,0.75
2023-03-16T15:46:42.993Z,0.85
2023-03-16T15:49:46.712Z,0.70
2023-03-16T15:52:34.391Z,0.63
2023-03-16T15:55:13.651Z,0.73
2023-03-16T15:57:41.862Z,0.80
2023-03-16T16:00:38.677Z,0.95
2023-03-16T16:03:05.994Z,0.80
2023-03-16T16:05:34.005Z,0.60
2023-03-16T16:11:18.281Z,0.60
2023-03-16T16:13:53.109Z,0.40
2023-03-16T16:19:27.567Z,0.40
2023-03-16T16:21:57.685Z,0.40
2023-03-16T16:24:34.094Z,0.40
2023-03-16T16:27:08.233Z,0.50
2023-03-16T16:29:50.401Z,0.40
2023-03-16T16:32:28.028Z,0.50
2023-03-16T16:35:04.639Z,0.40
2023-03-16T16:37:36.199Z,0.40
2023-03-16T16:40:07.967Z,0.40
2023-03-16T16:42:41.779Z,0.30
2023-03-16T16:48:42.233Z,0.43
2023-03-16T16:51:27.296Z,0.40
2023-03-16T16:54:08.939Z,0.52
2023-03-16T16:56:36.923Z,0.40
2023-03-16T16:59:34.465Z,0.40
2023-03-16T17:02:32.660Z,0.30
2023-03-16T17:05:04.037Z,0.40
2023-03-16T17:07:47.912Z,0.20
2023-03-16T17:10:49.273Z,0.10
2023-03-16T17:13:24.909Z,0.35
2023-03-16T17:16:09.807Z,0.40
2023-03-16T17:18:35.845Z,0.28
2023-03-16T17:21:01.903Z,0.30
2023-03-16T17:23:44.504Z,0.32
2023-03-16T17:26:23.901Z,0.30
2023-03-16T17:29:34.691Z,0.28
2023-03-16T17:32:21.556Z,0.30
2023-03-16T17:34:49.552Z,0.30
2023-03-16T17:37:30.655Z,0.30
2023-03-16T17:40:00.112Z,0.43
2023-03-16T17:42:34.402Z,0.45
2023-03-16T17:45:16.436Z,0.30
2023-03-16T17:47:46.981Z,0.30
2023-03-16T17:50:34.733Z,0.30
2023-03-16T17:53:03.324Z,0.40
2023-03-16T17:55:33.524Z,0.30
2023-03-16T17:58:00.871Z,0.30
2023-03-16T18:00:34.150Z,0.20
2023-03-16T18:03:13.737Z,0.40
2023-03-16T18:05:52.959Z,0.30
2023-03-16T18:08:35.316Z,0.43
2023-03-16T18:11:34.761Z,0.40
2023-03-16T18:14:08.034Z,0.40
2023-03-16T18:16:34.225Z,0.40
2023-03-16T18:19:17.115Z,0.40
2023-03-16T18:21:44.997Z,0.40
2023-03-16T18:24:22.434Z,0.30
2023-03-16T18:26:48.873Z,0.50
2023-03-16T18:29:14.920Z,0.40
2023-03-16T18:31:49.839Z,0.40
2023-03-16T18:34:59.550Z,0.68
2023-03-16T18:37:46.389Z,0.45
2023-03-16T18:40:16.392Z,0.40
2023-03-16T18:42:46.299Z,0.40
2023-03-16T18:45:41.013Z,0.40
2023-03-16T18:48:53.331Z,0.30
2023-03-16T18:51:20.989Z,0.52
2023-03-16T18:53:47.801Z,0.40
2023-03-16T18:56:26.981Z,0.45
2023-03-16T18:58:54.630Z,0.40
2023-03-16T19:01:28.783Z,0.43
2023-03-16T19:03:58.663Z,0.45
2023-03-16T19:06:54.807Z,0.50
2023-03-16T19:09:27.211Z,0.43
2023-03-16T19:11:56.936Z,0.47
2023-03-16T19:14:34.319Z,0.43
2023-03-16T19:17:06.822Z,0.30
2023-03-16T19:19:40.272Z,0.40
2023-03-16T19:22:27.993Z,0.60
2023-03-16T19:24:55.465Z,0.40
2023-03-16T19:27:41.235Z,0.52
2023-03-16T19:30:30.043Z,0.50
2023-03-16T19:33:02.914Z,0.60
2023-03-16T19:35:51.960Z,0.32
2023-03-16T19:38:24.504Z,0.60
2023-03-16T19:40:59.907Z,0.50
2023-03-16T19:43:36.376Z,0.60
2023-03-16T19:46:03.644Z,0.68
2023-03-16T19:48:48.218Z,0.45
2023-03-16T19:51:17.872Z,0.55
2023-03-16T19:53:48.077Z,0.60
2023-03-16T19:56:20.930Z,0.45
2023-03-16T19:58:57.063Z,0.68
2023-03-16T20:01:31.748Z,0.60
2023-03-16T20:04:05.110Z,0.60
2023-03-16T20:06:36.408Z,0.70
2023-03-16T20:09:02.489Z,0.70
2023-03-16T20:11:35.823Z,0.60
2023-03-16T20:14:05.686Z,0.77
2023-03-16T20:16:34.479Z,0.60
2023-03-16T20:19:11.060Z,0.65
2023-03-16T20:21:46.588Z,0.60
2023-03-16T20:24:30.820Z,1.00
2023-03-16T20:27:02.750Z,0.60
2023-03-16T20:29:41.891Z,0.70
2023-03-16T20:32:27.149Z,0.60
2023-03-16T20:34:57.518Z,0.80
2023-03-16T20:37:29.045Z,0.60
2023-03-16T20:39:56.958Z,0.85
2023-03-16T20:42:31.906Z,0.47
2023-03-16T20:45:41.856Z,0.70
2023-03-16T20:48:14.961Z,0.80
2023-03-16T20:50:45.396Z,0.60
2023-03-16T20:53:14.596Z,0.93
2023-03-16T20:55:41.039Z,0.70
2023-03-16T20:58:21.321Z,0.60
2023-03-16T21:00:49.874Z,0.98
2023-03-16T21:03:23.751Z,0.68
2023-03-16T21:06:01.794Z,0.90
2023-03-16T21:08:32.438Z,0.70
2023-03-16T21:10:59.213Z,0.70
2023-03-16T21:13:51.470Z,0.63
2023-03-16T21:16:18.175Z,0.93
2023-03-16T21:18:44.302Z,0.70
2023-03-16T21:21:23.807Z,0.80
2023-03-16T21:23:52.303Z,0.70
2023-03-16T21:26:24.987Z,0.70
2023-03-16T21:29:08.672Z,1.02
2023-03-16T21:31:38.426Z,0.98
2023-03-16T21:34:05.040Z,0.85
2023-03-16T21:36:34.313Z,0.93
2023-03-16T21:39:09.635Z,0.80
2023-03-16T21:41:46.495Z,0.70
2023-03-16T21:44:14.682Z,0.70
2023-03-16T21:46:47.339Z,0.80
2023-03-16T21:49:16.309Z,0.70
2023-03-16T21:51:44.683Z,0.90
2023-03-16T21:54:13.539Z,0.70
2023-03-16T21:56:47.173Z,0.75
2023-03-16T21:59:13.507Z,0.68
2023-03-16T22:02:00.286Z,0.80
2023-03-16T22:04:39.974Z,0.80
2023-03-16T22:07:29.163Z,0.82
2023-03-16T22:09:59.308Z,0.80
2023-03-16T22:12:37.563Z,0.73
2023-03-16T22:15:19.858Z,0.85
2023-03-16T22:17:50.414Z,0.90
2023-03-16T22:20:30.017Z,0.85
2023-03-16T22:22:58.920Z,0.90
2023-03-16T22:25:26.560Z,0.80
2023-03-16T22:27:53.341Z,0.73
2023-03-16T22:30:39.251Z,0.90
2023-03-16T22:33:31.637Z,0.70
2023-03-16T22:36:08.593Z,0.77
2023-03-16T22:38:35.663Z,0.60
2023-03-16T22:41:05.855Z,1.02
2023-03-16T22:43:41.226Z,0.80
2023-03-16T22:46:33.551Z,0.90
2023-03-16T22:49:09.334Z,1.05
2023-03-16T22:51:37.218Z,0.90
2023-03-16T22:54:18.712Z,0.88
2023-03-16T22:56:56.876Z,0.75
2023-03-16T22:59:57.090Z,0.90
2023-03-16T23:02:39.599Z,0.75
2023-03-16T23:05:30.629Z,0.80
2023-03-16T23:08:15.279Z,0.80
2023-03-16T23:10:41.626Z,0.80
2023-03-16T23:13:33.361Z,1.00
2023-03-16T23:16:03.748Z,0.70
2023-03-16T23:18:29.820Z,0.98
2023-03-16T23:20:55.866Z,0.80
2023-03-16T23:23:23.401Z,0.70
2023-03-16T23:25:51.448Z,0.80
2023-03-16T23:28:44.665Z,0.90
2023-03-16T23:31:16.638Z,1.02
2023-03-16T23:33:43.232Z,0.90
2023-03-16T23:36:25.605Z,0.70
2023-03-16T23:38:55.207Z,0.90
2023-03-16T23:41:44.081Z,1.00
2023-03-16T23:44:21.978Z,0.80
2023-03-16T23:46:48.293Z,0.80
2023-03-16T23:49:24.756Z,0.60
2023-03-16T23:51:51.909Z,0.77
2023-03-16T23:54:31.712Z,0.85
2023-03-16T23:57:17.983Z,0.88
2023-03-16T23:59:47.044Z,0.65
